createdAt,value
2018-08-10T00:00:20.806Z,23.80
2018-08-10T00:02:47.822Z,23.80
2018-08-10T00:05:14.899Z,23.90
2018-08-10T00:07:41.938Z,22.40
2018-08-10T00:10:08.939Z,24.10
2018-08-10T00:12:36.040Z,24.00
2018-08-10T00:15:03.047Z,24.00
2018-08-10T00:17:30.072Z,24.00
2018-08-10T00:19:57.118Z,24.10
2018-08-10T00:22:24.171Z,24.10
2018-08-10T00:24:51.192Z,24.00
2018-08-10T00:27:18.265Z,24.00
2018-08-10T00:29:46.206Z,24.00
2018-08-10T00:32:13.221Z,23.80
2018-08-10T00:34:40.281Z,23.80
2018-08-10T00:37:08.246Z,24.00
2018-08-10T00:39:35.809Z,23.90
2018-08-10T00:42:02.874Z,24.00
2018-08-10T00:44:29.925Z,23.90
2018-08-10T00:46:56.934Z,24.00
2018-08-10T00:52:03.455Z,24.10
2018-08-10T00:54:30.521Z,24.00
2018-08-10T00:56:57.519Z,24.00
2018-08-10T01:01:56.373Z,24.00
2018-08-10T01:04:23.391Z,24.10
2018-08-10T01:06:50.419Z,24.10
2018-08-10T01:09:18.363Z,24.10
2018-08-10T01:11:45.354Z,24.10
2018-08-10T01:14:13.633Z,24.20
2018-08-10T01:16:40.736Z,23.90
2018-08-10T01:19:07.787Z,24.00
2018-08-10T01:21:36.159Z,23.90
2018-08-10T01:24:03.258Z,24.00
2018-08-10T01:26:30.242Z,23.90
2018-08-10T01:28:57.411Z,23.80
2018-08-10T01:31:25.207Z,23.80
2018-08-10T01:33:52.222Z,23.80
2018-08-10T01:36:19.243Z,23.60
2018-08-10T01:38:46.318Z,23.40
2018-08-10T01:41:13.366Z,23.50
2018-08-10T01:43:40.377Z,23.40
2018-08-10T01:46:08.275Z,23.40
2018-08-10T01:48:35.281Z,23.40
2018-08-10T01:51:02.312Z,23.40
2018-08-10T01:55:56.465Z,23.30
2018-08-10T01:58:24.260Z,23.30
2018-08-10T02:00:51.329Z,23.20
2018-08-10T02:05:58.778Z,23.00
2018-08-10T02:08:25.766Z,22.70
2018-08-10T02:10:53.632Z,22.60
2018-08-10T02:15:47.893Z,22.60
2018-08-10T02:20:46.968Z,22.60
2018-08-10T02:23:14.080Z,22.70
2018-08-10T02:25:41.098Z,22.60
2018-08-10T02:28:08.134Z,22.40
2018-08-10T02:30:35.143Z,22.50
2018-08-10T02:33:02.146Z,22.50
2018-08-10T02:35:29.228Z,22.50
2018-08-10T02:37:56.227Z,22.50
2018-08-10T02:40:23.239Z,22.60
2018-08-10T02:42:51.223Z,22.70
2018-08-10T02:47:45.301Z,22.50
2018-08-10T02:50:12.389Z,22.30
2018-08-10T02:52:39.402Z,22.40
2018-08-10T02:55:06.405Z,22.30
2018-08-10T02:57:33.473Z,22.30
2018-08-10T03:00:00.527Z,22.20
2018-08-10T03:02:27.536Z,22.30
2018-08-10T03:04:54.610Z,22.40
2018-08-10T03:07:21.658Z,22.20
2018-08-10T03:09:48.681Z,22.30
2018-08-10T03:12:15.752Z,22.40
2018-08-10T03:14:42.917Z,22.60
2018-08-10T03:19:48.472Z,22.60
2018-08-10T03:22:16.372Z,22.70
2018-08-10T03:24:43.331Z,22.70
2018-08-10T03:27:10.379Z,22.30
2018-08-10T03:29:37.402Z,22.20
2018-08-10T03:32:05.162Z,22.10
2018-08-10T03:34:32.261Z,22.10
2018-08-10T03:36:59.846Z,22.20
2018-08-10T03:39:27.317Z,21.90
2018-08-10T03:41:54.392Z,21.40
2018-08-10T03:46:48.537Z,20.80
2018-08-10T03:49:15.592Z,20.80
2018-08-10T03:51:43.562Z,20.70
2018-08-10T03:54:10.559Z,20.60
2018-08-10T03:56:38.394Z,20.40
2018-08-10T03:59:05.390Z,20.30
2018-08-10T04:01:32.398Z,20.30
2018-08-10T04:03:59.465Z,20.30
2018-08-10T04:06:27.457Z,20.40
2018-08-10T04:08:54.493Z,20.40
2018-08-10T04:11:22.492Z,20.30
2018-08-10T04:13:49.492Z,20.30
2018-08-10T04:16:16.495Z,20.30
2018-08-10T04:18:43.609Z,20.30
2018-08-10T04:21:10.637Z,20.40
2018-08-10T04:23:43.562Z,20.40
2018-08-10T04:26:11.366Z,20.40
2018-08-10T04:31:05.548Z,20.50
2018-08-10T04:36:12.046Z,20.10
2018-08-10T04:38:39.094Z,20.20
2018-08-10T04:41:06.077Z,20.30
2018-08-10T04:43:33.138Z,20.30
2018-08-10T04:46:00.164Z,20.10
2018-08-10T04:48:27.165Z,20.00
2018-08-10T04:50:55.542Z,19.90
2018-08-10T04:53:22.538Z,19.70
2018-08-10T04:55:49.555Z,19.60
2018-08-10T04:58:16.613Z,19.60
2018-08-10T05:00:43.638Z,19.70
2018-08-10T05:03:11.465Z,19.80
2018-08-10T05:05:40.192Z,19.70
2018-08-10T05:08:08.685Z,19.60
2018-08-10T05:10:36.587Z,19.80
2018-08-10T05:13:04.005Z,19.70
2018-08-10T05:15:31.008Z,19.70
2018-08-10T05:17:58.007Z,19.50
2018-08-10T05:20:28.561Z,19.40
2018-08-10T05:22:55.595Z,19.50
2018-08-10T05:25:22.608Z,19.60
2018-08-10T05:27:49.725Z,19.70
2018-08-10T05:30:16.756Z,19.80
2018-08-10T05:32:43.792Z,19.90
2018-08-10T05:35:11.202Z,19.90
2018-08-10T05:37:43.363Z,20.10
2018-08-10T05:45:38.979Z,20.10
2018-08-10T06:04:19.711Z,20.20
2018-08-10T06:06:47.699Z,20.10
2018-08-10T06:09:24.042Z,19.90
2018-08-10T06:11:54.696Z,19.70
2018-08-10T06:14:26.092Z,19.70
2018-08-10T06:16:59.892Z,19.70
2018-08-10T06:19:27.045Z,19.50
2018-08-10T06:24:38.388Z,19.70
2018-08-10T06:27:07.646Z,19.80
2018-08-10T06:32:18.186Z,19.90
2018-08-10T06:34:46.188Z,19.70
2018-08-10T06:37:13.208Z,19.70
2018-08-10T06:39:40.301Z,19.80
2018-08-10T06:42:09.035Z,19.80
2018-08-10T06:49:46.849Z,19.90
2018-08-10T06:52:15.127Z,19.70
2018-08-10T06:57:10.385Z,19.80
2018-08-10T06:59:42.598Z,19.50
2018-08-10T07:02:10.487Z,19.60
2018-08-10T07:07:04.732Z,19.40
2018-08-10T07:09:32.211Z,19.40
2018-08-10T07:11:59.276Z,19.50
2018-08-10T07:14:27.253Z,19.50
2018-08-10T07:16:54.851Z,19.60
2018-08-10T07:19:21.853Z,19.60
2018-08-10T07:21:48.858Z,19.70
2018-08-10T07:24:16.919Z,19.70
2018-08-10T07:26:43.957Z,19.40
2018-08-10T07:29:11.309Z,19.40
2018-08-10T07:31:38.419Z,19.30
2018-08-10T07:36:34.103Z,19.50
2018-08-10T07:39:01.139Z,19.50
2018-08-10T07:41:28.171Z,19.50
2018-08-10T07:43:55.874Z,19.60
2018-08-10T07:46:23.445Z,19.60
2018-08-10T07:48:50.333Z,19.70
2018-08-10T07:53:57.071Z,19.80
2018-08-10T07:56:24.117Z,19.80
2018-08-10T07:58:51.152Z,19.90
2018-08-10T08:01:18.294Z,19.80
2018-08-10T08:03:45.340Z,19.70
2018-08-10T08:06:12.391Z,19.70
2018-08-10T08:08:39.440Z,19.60
2018-08-10T08:13:37.634Z,19.50
2018-08-10T08:16:05.606Z,19.60
2018-08-10T08:20:59.692Z,19.50
2018-08-10T08:23:27.168Z,19.40
2018-08-10T08:25:54.188Z,19.40
2018-08-10T08:28:22.361Z,19.50
2018-08-10T08:30:49.461Z,19.50
2018-08-10T08:33:16.805Z,19.50
2018-08-10T08:35:44.715Z,19.60
2018-08-10T08:38:13.185Z,19.50
2018-08-10T08:40:40.175Z,19.30
2018-08-10T08:43:07.526Z,19.40
2018-08-10T08:48:02.433Z,19.40
2018-08-10T08:55:35.567Z,19.30
2018-08-10T08:58:03.165Z,19.10
2018-08-10T09:00:30.506Z,19.00
2018-08-10T09:02:57.982Z,18.70
2018-08-10T09:05:25.196Z,18.70
2018-08-10T09:07:53.091Z,18.60
2018-08-10T09:10:20.120Z,18.70
2018-08-10T09:12:47.225Z,18.70
2018-08-10T09:15:14.253Z,18.70
2018-08-10T09:17:41.299Z,18.80
2018-08-10T09:20:09.463Z,18.80
2018-08-10T09:22:37.329Z,18.60
2018-08-10T09:25:05.158Z,18.70
2018-08-10T09:27:33.159Z,18.30
2018-08-10T09:30:00.198Z,18.40
2018-08-10T09:32:27.225Z,18.50
2018-08-10T09:34:55.291Z,18.30
2018-08-10T09:37:22.707Z,17.90
2018-08-10T09:39:49.735Z,17.80
2018-08-10T09:42:17.713Z,17.80
2018-08-10T09:44:45.534Z,17.80
2018-08-10T09:47:12.555Z,17.80
2018-08-10T09:49:40.657Z,17.60
2018-08-10T09:52:07.691Z,17.50
2018-08-10T09:59:42.540Z,17.50
2018-08-10T10:02:09.545Z,17.50
2018-08-10T10:04:37.384Z,17.50
2018-08-10T10:07:05.279Z,17.60
2018-08-10T10:12:00.048Z,17.70
2018-08-10T10:14:27.970Z,17.80
2018-08-10T10:16:54.998Z,17.90
2018-08-10T10:19:22.124Z,17.90
2018-08-10T10:21:50.026Z,18.00
2018-08-10T10:26:44.669Z,18.20
2018-08-10T10:29:11.704Z,18.30
2018-08-10T10:31:39.124Z,18.30
2018-08-10T10:34:06.714Z,18.40
2018-08-10T10:36:33.925Z,18.40
2018-08-10T10:39:01.056Z,18.50
2018-08-10T10:41:29.025Z,18.40
2018-08-10T10:46:35.640Z,18.30
2018-08-10T10:49:02.672Z,18.30
2018-08-10T10:51:29.679Z,18.30
2018-08-10T10:53:57.900Z,18.40
2018-08-10T10:56:25.833Z,18.40
2018-08-10T10:58:53.723Z,18.30
2018-08-10T11:01:23.302Z,18.30
2018-08-10T11:03:52.080Z,18.40
2018-08-10T11:08:58.284Z,18.50
2018-08-10T11:11:25.535Z,18.60
2018-08-10T11:16:25.356Z,18.60
2018-08-10T11:18:52.390Z,18.60
2018-08-10T11:24:00.375Z,18.50
2018-08-10T11:26:29.488Z,18.60
2018-08-10T11:28:57.510Z,18.60
2018-08-10T11:31:25.485Z,18.60
2018-08-10T11:33:53.821Z,18.60
2018-08-10T11:36:21.202Z,18.60
2018-08-10T11:38:48.308Z,18.50
2018-08-10T11:41:15.374Z,18.50
2018-08-10T11:43:45.548Z,18.70
2018-08-10T11:46:19.001Z,18.60
2018-08-10T11:51:33.744Z,17.20
2018-08-10T11:54:07.627Z,18.80
2018-08-10T11:56:42.181Z,18.70
2018-08-10T11:59:15.330Z,18.80
2018-08-10T12:01:42.451Z,18.70
2018-08-10T12:04:09.545Z,18.90
2018-08-10T12:06:38.846Z,18.70
2018-08-10T12:09:07.244Z,18.60
2018-08-10T12:14:16.713Z,18.60
2018-08-10T12:16:43.732Z,18.70
2018-08-10T12:19:10.831Z,18.70
2018-08-10T12:21:38.870Z,18.60
2018-08-10T12:24:05.943Z,18.80
2018-08-10T12:26:33.935Z,19.00
2018-08-10T12:29:01.056Z,19.10
2018-08-10T12:31:28.680Z,19.10
2018-08-10T12:33:56.666Z,18.80
2018-08-10T12:38:52.292Z,18.50
2018-08-10T12:41:20.364Z,18.50
2018-08-10T12:43:47.522Z,18.30
2018-08-10T12:46:16.355Z,18.30
2018-08-10T12:48:43.384Z,18.00
2018-08-10T12:51:12.571Z,18.10
2018-08-10T12:53:43.903Z,18.00
2018-08-10T12:56:11.875Z,18.00
2018-08-10T12:58:39.421Z,18.00
2018-08-10T13:01:06.465Z,17.70
2018-08-10T13:03:33.722Z,17.70
2018-08-10T13:08:41.430Z,17.70
2018-08-10T13:11:09.456Z,17.70
2018-08-10T13:13:38.469Z,17.70
2018-08-10T13:16:05.580Z,17.50
2018-08-10T13:18:33.232Z,17.60
2018-08-10T13:21:00.324Z,17.60
2018-08-10T13:23:27.429Z,17.40
2018-08-10T13:25:55.301Z,17.40
2018-08-10T13:28:22.340Z,17.40
2018-08-10T13:30:49.404Z,17.70
2018-08-10T13:33:16.442Z,17.60
2018-08-10T13:35:43.461Z,17.50
2018-08-10T13:38:10.544Z,17.50
2018-08-10T13:40:37.574Z,17.50
2018-08-10T13:43:04.613Z,17.80
2018-08-10T13:45:31.727Z,17.90
2018-08-10T13:47:58.861Z,17.90
2018-08-10T13:50:25.908Z,17.90
2018-08-10T13:52:53.030Z,17.90
2018-08-10T13:55:20.067Z,18.10
2018-08-10T13:57:48.803Z,18.10
2018-08-10T14:00:15.904Z,17.90
2018-08-10T14:05:23.412Z,17.80
2018-08-10T14:07:51.303Z,17.90
2018-08-10T14:10:18.944Z,18.00
2018-08-10T14:12:48.046Z,17.90
2018-08-10T14:15:15.080Z,18.10
2018-08-10T14:17:44.508Z,18.10
2018-08-10T14:20:13.442Z,17.90
2018-08-10T14:28:13.658Z,18.00
2018-08-10T14:33:09.550Z,18.10
2018-08-10T14:35:37.151Z,18.10
2018-08-10T14:40:45.069Z,18.10
2018-08-10T14:45:41.497Z,18.20
2018-08-10T14:50:48.847Z,18.10
2018-08-10T14:53:16.179Z,18.30
2018-08-10T14:58:11.065Z,18.10
2018-08-10T15:00:39.099Z,18.00
2018-08-10T15:03:07.070Z,18.00
2018-08-10T15:05:34.183Z,17.90
2018-08-10T15:10:46.366Z,17.80
2018-08-10T15:13:13.403Z,17.70
2018-08-10T15:15:43.275Z,17.80
2018-08-10T15:18:10.627Z,17.80
2018-08-10T15:20:39.025Z,17.60
2018-08-10T15:23:06.162Z,17.50
2018-08-10T15:25:33.808Z,17.30
2018-08-10T15:28:00.934Z,17.50
2018-08-10T15:30:28.648Z,17.40
2018-08-10T15:32:56.370Z,17.30
2018-08-10T15:35:23.513Z,17.30
2018-08-10T15:37:50.639Z,17.30
2018-08-10T15:42:45.916Z,17.20
2018-08-10T15:45:12.956Z,17.20
2018-08-10T15:47:40.946Z,17.20
2018-08-10T15:50:08.957Z,17.30
2018-08-10T15:52:36.027Z,17.20
2018-08-10T15:55:03.098Z,17.10
2018-08-10T15:57:31.053Z,17.10
2018-08-10T15:59:58.156Z,17.00
2018-08-10T16:02:25.259Z,17.10
2018-08-10T16:04:52.325Z,17.10
2018-08-10T16:07:19.350Z,17.20
2018-08-10T16:09:46.454Z,17.20
2018-08-10T16:12:14.293Z,17.10
2018-08-10T16:14:41.373Z,17.30
2018-08-10T16:17:09.579Z,17.30
2018-08-10T16:19:36.546Z,17.50
2018-08-10T16:22:03.601Z,17.40
2018-08-10T16:24:30.656Z,17.50
2018-08-10T16:26:58.655Z,17.70
2018-08-10T16:34:46.849Z,17.50
2018-08-10T16:37:13.920Z,17.40
2018-08-10T16:39:41.086Z,17.40
2018-08-10T16:42:08.192Z,17.40
2018-08-10T16:44:36.298Z,17.50
2018-08-10T16:47:03.268Z,17.70
2018-08-10T16:49:30.747Z,17.60
2018-08-10T16:51:58.399Z,17.60
2018-08-10T16:54:27.446Z,17.40
2018-08-10T16:56:55.036Z,17.40
2018-08-10T17:01:50.254Z,17.60
2018-08-10T17:06:44.728Z,17.60
2018-08-10T17:09:11.760Z,17.60
2018-08-10T17:11:39.974Z,17.60
2018-08-10T17:14:07.053Z,17.80
2018-08-10T17:16:34.133Z,17.90
2018-08-10T17:19:01.195Z,18.00
2018-08-10T17:21:28.316Z,18.10
2018-08-10T17:23:57.003Z,18.00
2018-08-10T17:26:30.130Z,18.00
2018-08-10T17:28:57.175Z,18.10
2018-08-10T17:39:06.200Z,18.20
2018-08-10T17:41:37.079Z,18.20
2018-08-10T17:44:06.392Z,18.30
2018-08-10T17:46:39.967Z,18.20
2018-08-10T17:49:14.445Z,18.10
2018-08-10T17:54:16.383Z,18.20
2018-08-10T17:59:32.687Z,18.10
2018-08-10T18:04:26.960Z,18.10
2018-08-10T18:06:54.055Z,18.10
2018-08-10T18:09:21.176Z,18.10
2018-08-10T18:11:48.773Z,18.10
2018-08-10T18:14:15.868Z,18.10
2018-08-10T18:16:49.597Z,18.10
2018-08-10T18:19:18.139Z,18.10
2018-08-10T18:21:45.158Z,18.10
2018-08-10T18:24:13.015Z,18.10
2018-08-10T18:26:40.754Z,18.10
2018-08-10T18:29:07.771Z,18.00
2018-08-10T18:31:34.789Z,17.90
2018-08-10T18:34:02.726Z,17.90
2018-08-10T18:36:30.619Z,17.90
2018-08-10T18:38:57.639Z,17.70
2018-08-10T18:41:24.732Z,17.80
2018-08-10T18:43:51.824Z,17.70
2018-08-10T18:46:18.834Z,17.70
2018-08-10T18:48:45.925Z,17.60
2018-08-10T18:53:53.466Z,17.60
2018-08-10T18:56:20.593Z,17.70
2018-08-10T18:58:48.584Z,17.80
2018-08-10T19:01:18.137Z,17.80
2018-08-10T19:06:13.269Z,17.90
2018-08-10T19:08:40.380Z,18.00
2018-08-10T19:11:07.429Z,17.90
2018-08-10T19:13:35.376Z,17.90
2018-08-10T19:16:02.525Z,17.90
2018-08-10T19:18:29.572Z,18.00
2018-08-10T19:20:56.645Z,17.90
2018-08-10T19:23:23.767Z,17.80
2018-08-10T19:25:50.805Z,17.70
2018-08-10T19:28:20.968Z,17.60
2018-08-10T19:30:46.705Z,17.40
2018-08-10T19:33:13.759Z,17.30
2018-08-10T19:35:40.866Z,17.40
2018-08-10T19:38:07.989Z,17.30
2018-08-10T19:40:35.123Z,17.40
2018-08-10T19:43:02.393Z,17.50
2018-08-10T19:45:29.503Z,17.70
2018-08-10T19:47:56.650Z,17.70
2018-08-10T19:50:23.707Z,17.70
2018-08-10T19:52:50.820Z,17.50
2018-08-10T19:55:17.876Z,17.30
2018-08-10T19:57:45.768Z,17.30
2018-08-10T20:00:13.276Z,17.30
2018-08-10T20:02:40.343Z,17.40
2018-08-10T20:07:45.018Z,17.30
2018-08-10T20:10:12.069Z,17.30
2018-08-10T20:12:40.477Z,17.20
2018-08-10T20:15:06.358Z,17.20
2018-08-10T20:17:33.903Z,17.20
2018-08-10T20:20:01.046Z,17.40
2018-08-10T20:22:28.166Z,17.50
2018-08-10T20:24:55.462Z,17.40
2018-08-10T20:27:22.522Z,17.50
2018-08-10T20:29:49.663Z,17.50
2018-08-10T20:32:17.276Z,17.60
2018-08-10T20:34:44.302Z,17.60
2018-08-10T20:37:11.411Z,17.60
2018-08-10T20:39:38.464Z,17.60
2018-08-10T20:44:46.335Z,17.50
2018-08-10T20:47:13.399Z,17.50
2018-08-10T20:49:40.427Z,17.50
2018-08-10T20:52:07.566Z,17.60
2018-08-10T20:57:13.157Z,17.60
2018-08-10T20:59:40.500Z,17.70
2018-08-10T21:02:07.550Z,17.70
2018-08-10T21:04:35.163Z,17.70
2018-08-10T21:09:29.356Z,17.70
2018-08-10T21:11:56.443Z,17.60
2018-08-10T21:14:23.494Z,17.70
2018-08-10T21:16:50.535Z,17.70
2018-08-10T21:19:17.660Z,17.60
2018-08-10T21:21:44.687Z,17.60
2018-08-10T21:24:12.799Z,17.50
2018-08-10T21:26:40.684Z,17.40
2018-08-10T21:29:20.405Z,17.40
2018-08-10T21:31:47.469Z,17.50
2018-08-10T21:34:14.536Z,17.40
2018-08-10T21:36:41.594Z,17.20
2018-08-10T21:39:08.707Z,17.10
2018-08-10T21:41:36.183Z,17.00
2018-08-10T21:44:03.212Z,16.90
2018-08-10T21:46:30.334Z,16.80
2018-08-10T21:48:57.369Z,16.80
2018-08-10T21:56:18.737Z,17.00
2018-08-10T21:58:45.797Z,17.00
2018-08-10T22:01:13.743Z,17.10
2018-08-10T22:03:40.796Z,17.00
2018-08-10T22:06:07.817Z,17.10
2018-08-10T22:08:34.918Z,17.00
2018-08-10T22:11:01.966Z,17.00
2018-08-10T22:13:30.326Z,17.10
2018-08-10T22:18:38.628Z,17.10
2018-08-10T22:21:05.642Z,17.20
2018-08-10T22:28:27.029Z,17.20
2018-08-10T22:30:56.333Z,17.10
2018-08-10T22:35:57.365Z,16.80
2018-08-10T22:38:25.341Z,16.80
2018-08-10T22:40:52.387Z,16.80
2018-08-10T22:43:19.513Z,16.80
2018-08-10T22:48:13.706Z,16.80
2018-08-10T22:50:41.306Z,16.70
2018-08-10T22:53:08.356Z,16.70
2018-08-10T22:55:35.415Z,16.60
2018-08-10T22:58:02.529Z,16.50
2018-08-10T23:00:29.575Z,16.40
2018-08-10T23:02:57.547Z,16.40
2018-08-10T23:05:24.641Z,16.40
2018-08-10T23:07:52.384Z,16.40
2018-08-10T23:10:19.881Z,16.50
2018-08-10T23:12:46.981Z,16.50
2018-08-10T23:15:14.034Z,16.50
2018-08-10T23:17:41.071Z,16.50
2018-08-10T23:20:08.355Z,16.50
2018-08-10T23:22:35.313Z,16.50
2018-08-10T23:25:03.373Z,16.50
2018-08-10T23:27:30.470Z,16.50
2018-08-10T23:29:57.514Z,16.40
2018-08-10T23:35:03.828Z,16.20
2018-08-10T23:37:31.768Z,16.10
2018-08-10T23:39:58.798Z,16.10
2018-08-10T23:42:26.772Z,16.00
2018-08-10T23:44:53.912Z,16.00
2018-08-10T23:47:20.949Z,16.00
2018-08-10T23:49:48.065Z,16.00
2018-08-10T23:52:15.082Z,16.10
2018-08-10T23:54:42.122Z,16.10
2018-08-10T23:57:09.981Z,16.00
2018-08-10T23:59:37.016Z,15.90
